Windham, Iowa
Current Conditions -  °F | °C
As of 5:52 PM on Wednesday 26 Nov 2014 (Local Time) from KCID Reporting Station
Haze Haze  
Wind Chill: 18°   Ceiling: 1300
Heat Index: 28°   Visibility: 5mi
Dew Point: 25°   Wind: 12mph
Humidity: 88%   Direction: 30°NNE
Pressure: 30.16"   Gusts: NA
Location:  41.6512°N, 91.7745°W
Report Text: KCID 262352Z 03010KT 5SM BR OVC013 M02/M04 A3016 RMK AO2 SNE13 SLP224 P0000 60000 T10221039 11011 21022 52033
Loading
Personal Weather Stations






























Interactive Weather Map New forecast layout! Learn more

10-Day Weather Forecast

Advertisements
Track Severe Weather on mobile